sensor_id;sensor_type;location;lat;lon;timestamp;P1;durP1;ratioP1;P2;durP2;ratioP2
37151;SDS011;23046;50.112;8.952;2023-01-08T00:00:09;4.60;;;2.80;;
37151;SDS011;23046;50.112;8.952;2023-01-08T00:00:22;3.65;;;2.88;;
37151;SDS011;23046;50.112;8.952;2023-01-08T00:00:32;4.43;;;2.92;;
37151;SDS011;23046;50.112;8.952;2023-01-08T00:00:43;4.27;;;2.87;;
37151;SDS011;23046;50.112;8.952;2023-01-08T00:00:53;4.77;;;2.80;;
37151;SDS011;23046;50.112;8.952;2023-01-08T00:01:08;4.32;;;2.97;;
37151;SDS011;23046;50.112;8.952;2023-01-08T00:01:18;5.30;;;3.25;;
37151;SDS011;23046;50.112;8.952;2023-01-08T00:01:28;4.03;;;3.10;;
37151;SDS011;23046;50.112;8.952;2023-01-08T00:01:39;3.87;;;3.07;;
37151;SDS011;23046;50.112;8.952;2023-01-08T00:01:49;4.03;;;3.30;;
37151;SDS011;23046;50.112;8.952;2023-01-08T00:01:59;4.77;;;3.53;;
37151;SDS011;23046;50.112;8.952;2023-01-08T00:02:10;5.57;;;3.88;;
37151;SDS011;23046;50.112;8.952;2023-01-08T00:02:20;5.27;;;3.87;;
37151;SDS011;23046;50.112;8.952;2023-01-08T00:02:30;5.07;;;3.77;;
37151;SDS011;23046;50.112;8.952;2023-01-08T00:02:40;4.47;;;3.50;;
37151;SDS011;23046;50.112;8.952;2023-01-08T00:02:51;5.17;;;3.50;;
37151;SDS011;23046;50.112;8.952;2023-01-08T00:03:01;6.60;;;3.70;;
37151;SDS011;23046;50.112;8.952;2023-01-08T00:03:11;6.10;;;3.57;;
37151;SDS011;23046;50.112;8.952;2023-01-08T00:03:22;5.40;;;3.45;;
37151;SDS011;23046;50.112;8.952;2023-01-08T00:03:32;5.93;;;3.77;;
37151;SDS011;23046;50.112;8.952;2023-01-08T00:03:42;6.70;;;3.90;;
37151;SDS011;23046;50.112;8.952;2023-01-08T00:03:53;6.50;;;3.85;;
37151;SDS011;23046;50.112;8.952;2023-01-08T00:04:03;4.53;;;3.40;;
37151;SDS011;23046;50.112;8.952;2023-01-08T00:04:13;4.27;;;3.40;;
37151;SDS011;23046;50.112;8.952;2023-01-08T00:04:24;4.55;;;3.45;;
37151;SDS011;23046;50.112;8.952;2023-01-08T00:04:35;4.57;;;3.40;;
37151;SDS011;23046;50.112;8.952;2023-01-08T00:04:45;4.57;;;3.50;;
37151;SDS011;23046;50.112;8.952;2023-01-08T00:04:55;5.47;;;3.63;;
37151;SDS011;23046;50.112;8.952;2023-01-08T00:05:05;6.73;;;3.87;;
37151;SDS011;23046;50.112;8.952;2023-01-08T00:05:15;7.22;;;4.10;;
37151;SDS011;23046;50.112;8.952;2023-01-08T00:05:26;5.77;;;3.90;;
37151;SDS011;23046;50.112;8.952;2023-01-08T00:05:36;5.60;;;3.90;;
37151;SDS011;23046;50.112;8.952;2023-01-08T00:05:46;5.17;;;3.63;;
37151;SDS011;23046;50.112;8.952;2023-01-08T00:05:59;5.55;;;3.58;;
37151;SDS011;23046;50.112;8.952;2023-01-08T00:06:13;4.28;;;3.28;;
37151;SDS011;23046;50.112;8.952;2023-01-08T00:06:24;4.90;;;3.50;;
37151;SDS011;23046;50.112;8.952;2023-01-08T00:06:34;4.90;;;3.70;;
37151;SDS011;23046;50.112;8.952;2023-01-08T00:06:44;7.07;;;3.90;;
37151;SDS011;23046;50.112;8.952;2023-01-08T00:06:54;7.95;;;4.00;;
37151;SDS011;23046;50.112;8.952;2023-01-08T00:07:05;8.03;;;3.93;;
37151;SDS011;23046;50.112;8.952;2023-01-08T00:07:15;8.80;;;4.00;;
37151;SDS011;23046;50.112;8.952;2023-01-08T00:07:25;7.37;;;3.80;;
37151;SDS011;23046;50.112;8.952;2023-01-08T00:07:35;7.73;;;3.87;;
37151;SDS011;23046;50.112;8.952;2023-01-08T00:07:45;5.20;;;3.60;;
37151;SDS011;23046;50.112;8.952;2023-01-08T00:07:56;6.10;;;3.90;;
37151;SDS011;23046;50.112;8.952;2023-01-08T00:08:06;5.93;;;3.93;;
37151;SDS011;23046;50.112;8.952;2023-01-08T00:08:17;5.43;;;3.88;;
37151;SDS011;23046;50.112;8.952;2023-01-08T00:08:28;4.50;;;3.57;;
37151;SDS011;23046;50.112;8.952;2023-01-08T00:08:38;4.60;;;3.60;;
37151;SDS011;23046;50.112;8.952;2023-01-08T00:08:48;5.20;;;3.73;;
37151;SDS011;23046;50.112;8.952;2023-01-08T00:08:58;5.90;;;4.00;;
37151;SDS011;23046;50.112;8.952;2023-01-08T00:09:09;6.18;;;3.90;;
37151;SDS011;23046;50.112;8.952;2023-01-08T00:09:19;5.53;;;3.80;;
37151;SDS011;23046;50.112;8.952;2023-01-08T00:09:30;4.68;;;3.63;;
37151;SDS011;23046;50.112;8.952;2023-01-08T00:09:40;4.47;;;3.70;;
37151;SDS011;23046;50.112;8.952;2023-01-08T00:09:50;5.03;;;3.90;;
37151;SDS011;23046;50.112;8.952;2023-01-08T00:10:01;6.70;;;3.92;;
37151;SDS011;23046;50.112;8.952;2023-01-08T00:10:11;7.40;;;3.97;;
37151;SDS011;23046;50.112;8.952;2023-01-08T00:10:21;7.20;;;3.80;;
37151;SDS011;23046;50.112;8.952;2023-01-08T00:10:31;5.70;;;3.90;;
37151;SDS011;23046;50.112;8.952;2023-01-08T00:10:41;6.00;;;4.00;;
37151;SDS011;23046;50.112;8.952;2023-01-08T00:10:55;6.75;;;4.10;;
37151;SDS011;23046;50.112;8.952;2023-01-08T00:11:05;6.97;;;4.13;;
37151;SDS011;23046;50.112;8.952;2023-01-08T00:11:15;6.63;;;4.03;;
37151;SDS011;23046;50.112;8.952;2023-01-08T00:11:25;6.13;;;4.10;;
37151;SDS011;23046;50.112;8.952;2023-01-08T00:11:35;5.93;;;4.13;;
37151;SDS011;23046;50.112;8.952;2023-01-08T00:11:46;7.28;;;4.03;;
37151;SDS011;23046;50.112;8.952;2023-01-08T00:11:58;7.28;;;3.90;;
37151;SDS011;23046;50.112;8.952;2023-01-08T00:12:08;7.30;;;3.97;;
37151;SDS011;23046;50.112;8.952;2023-01-08T00:12:18;5.90;;;4.20;;
37151;SDS011;23046;50.112;8.952;2023-01-08T00:12:29;6.25;;;4.30;;
37151;SDS011;23046;50.112;8.952;2023-01-08T00:12:39;7.43;;;4.20;;
37151;SDS011;23046;50.112;8.952;2023-01-08T00:12:49;7.47;;;4.00;;
37151;SDS011;23046;50.112;8.952;2023-01-08T00:12:59;7.03;;;3.83;;
37151;SDS011;23046;50.112;8.952;2023-01-08T00:13:09;5.80;;;3.80;;
37151;SDS011;23046;50.112;8.952;2023-01-08T00:13:20;7.33;;;3.80;;
37151;SDS011;23046;50.112;8.952;2023-01-08T00:13:30;6.60;;;3.60;;
37151;SDS011;23046;50.112;8.952;2023-01-08T00:13:40;6.67;;;3.63;;
37151;SDS011;23046;50.112;8.952;2023-01-08T00:13:50;6.03;;;3.70;;
37151;SDS011;23046;50.112;8.952;2023-01-08T00:14:01;6.65;;;4.03;;
37151;SDS011;23046;50.112;8.952;2023-01-08T00:14:11;6.13;;;3.90;;
37151;SDS011;23046;50.112;8.952;2023-01-08T00:14:23;5.60;;;3.90;;
37151;SDS011;23046;50.112;8.952;2023-01-08T00:14:33;5.50;;;3.95;;
37151;SDS011;23046;50.112;8.952;2023-01-08T00:14:44;5.35;;;4.13;;
37151;SDS011;23046;50.112;8.952;2023-01-08T00:14:54;5.57;;;4.30;;
37151;SDS011;23046;50.112;8.952;2023-01-08T00:15:04;5.33;;;4.20;;
37151;SDS011;23046;50.112;8.952;2023-01-08T00:15:15;5.90;;;4.32;;
37151;SDS011;23046;50.112;8.952;2023-01-08T00:15:25;6.20;;;4.20;;
37151;SDS011;23046;50.112;8.952;2023-01-08T00:15:36;6.23;;;4.10;;
37151;SDS011;23046;50.112;8.952;2023-01-08T00:15:46;6.75;;;4.07;;
37151;SDS011;23046;50.112;8.952;2023-01-08T00:15:56;5.93;;;3.97;;
37151;SDS011;23046;50.112;8.952;2023-01-08T00:16:07;6.37;;;4.07;;
37151;SDS011;23046;50.112;8.952;2023-01-08T00:16:18;5.57;;;4.05;;
37151;SDS011;23046;50.112;8.952;2023-01-08T00:16:29;5.33;;;4.10;;
37151;SDS011;23046;50.112;8.952;2023-01-08T00:16:39;5.13;;;4.00;;
37151;SDS011;23046;50.112;8.952;2023-01-08T00:16:50;5.32;;;3.95;;
37151;SDS011;23046;50.112;8.952;2023-01-08T00:17:00;5.37;;;3.87;;
37151;SDS011;23046;50.112;8.952;2023-01-08T00:17:11;5.72;;;3.90;;
37151;SDS011;23046;50.112;8.952;2023-01-08T00:17:21;5.83;;;3.93;;
37151;SDS011;23046;50.112;8.952;2023-01-08T00:17:32;6.60;;;4.10;;
37151;SDS011;23046;50.112;8.952;2023-01-08T00:17:42;5.93;;;4.10;;
37151;SDS011;23046;50.112;8.952;2023-01-08T00:17:52;6.03;;;4.30;;
37151;SDS011;23046;50.112;8.952;2023-01-08T00:18:02;5.33;;;4.03;;
37151;SDS011;23046;50.112;8.952;2023-01-08T00:18:13;5.18;;;3.90;;
37151;SDS011;23046;50.112;8.952;2023-01-08T00:18:23;5.23;;;3.73;;
37151;SDS011;23046;50.112;8.952;2023-01-08T00:18:36;5.70;;;3.95;;
37151;SDS011;23046;50.112;8.952;2023-01-08T00:18:46;5.60;;;3.92;;
37151;SDS011;23046;50.112;8.952;2023-01-08T00:18:56;5.33;;;3.90;;
37151;SDS011;23046;50.112;8.952;2023-01-08T00:19:06;5.13;;;3.67;;
37151;SDS011;23046;50.112;8.952;2023-01-08T00:19:16;4.67;;;3.60;;
37151;SDS011;23046;50.112;8.952;2023-01-08T00:19:27;4.65;;;3.60;;
37151;SDS011;23046;50.112;8.952;2023-01-08T00:19:38;4.93;;;3.70;;
37151;SDS011;23046;50.112;8.952;2023-01-08T00:19:50;5.35;;;3.70;;
37151;SDS011;23046;50.112;8.952;2023-01-08T00:20:01;6.17;;;3.90;;
37151;SDS011;23046;50.112;8.952;2023-01-08T00:20:11;5.93;;;3.90;;
37151;SDS011;23046;50.112;8.952;2023-01-08T00:20:21;5.57;;;3.90;;
37151;SDS011;23046;50.112;8.952;2023-01-08T00:20:31;5.17;;;3.80;;
37151;SDS011;23046;50.112;8.952;2023-01-08T00:20:42;5.20;;;3.83;;
37151;SDS011;23046;50.112;8.952;2023-01-08T00:20:52;5.97;;;3.95;;
37151;SDS011;23046;50.112;8.952;2023-01-08T00:21:03;6.07;;;3.93;;
37151;SDS011;23046;50.112;8.952;2023-01-08T00:21:13;5.88;;;3.80;;
37151;SDS011;23046;50.112;8.952;2023-01-08T00:21:23;6.70;;;3.93;;
37151;SDS011;23046;50.112;8.952;2023-01-08T00:21:34;6.32;;;4.00;;
37151;SDS011;23046;50.112;8.952;2023-01-08T00:21:44;5.80;;;3.93;;
37151;SDS011;23046;50.112;8.952;2023-01-08T00:21:54;4.33;;;3.80;;
37151;SDS011;23046;50.112;8.952;2023-01-08T00:22:04;4.37;;;3.73;;
37151;SDS011;23046;50.112;8.952;2023-01-08T00:22:14;4.90;;;3.80;;
37151;SDS011;23046;50.112;8.952;2023-01-08T00:22:25;4.67;;;3.60;;
37151;SDS011;23046;50.112;8.952;2023-01-08T00:22:35;4.70;;;3.50;;
37151;SDS011;23046;50.112;8.952;2023-01-08T00:22:48;4.77;;;3.43;;
37151;SDS011;23046;50.112;8.952;2023-01-08T00:22:58;5.20;;;3.70;;
37151;SDS011;23046;50.112;8.952;2023-01-08T00:23:12;4.77;;;3.73;;
37151;SDS011;23046;50.112;8.952;2023-01-08T00:23:23;4.72;;;3.78;;
37151;SDS011;23046;50.112;8.952;2023-01-08T00:23:33;5.40;;;4.00;;
37151;SDS011;23046;50.112;8.952;2023-01-08T00:23:43;6.43;;;4.13;;
37151;SDS011;23046;50.112;8.952;2023-01-08T00:23:54;6.23;;;3.93;;
37151;SDS011;23046;50.112;8.952;2023-01-08T00:24:04;5.88;;;3.67;;
37151;SDS011;23046;50.112;8.952;2023-01-08T00:24:14;5.00;;;3.50;;
37151;SDS011;23046;50.112;8.952;2023-01-08T00:24:24;5.47;;;3.70;;
37151;SDS011;23046;50.112;8.952;2023-01-08T00:24:35;4.73;;;3.60;;
37151;SDS011;23046;50.112;8.952;2023-01-08T00:24:45;4.30;;;3.63;;
37151;SDS011;23046;50.112;8.952;2023-01-08T00:24:55;4.03;;;3.60;;
37151;SDS011;23046;50.112;8.952;2023-01-08T00:25:05;5.27;;;3.70;;
37151;SDS011;23046;50.112;8.952;2023-01-08T00:25:16;5.57;;;3.90;;
37151;SDS011;23046;50.112;8.952;2023-01-08T00:25:26;6.00;;;3.92;;
37151;SDS011;23046;50.112;8.952;2023-01-08T00:25:36;5.07;;;3.80;;
37151;SDS011;23046;50.112;8.952;2023-01-08T00:25:47;5.00;;;3.60;;
37151;SDS011;23046;50.112;8.952;2023-01-08T00:25:59;4.67;;;3.60;;
37151;SDS011;23046;50.112;8.952;2023-01-08T00:26:10;5.55;;;3.70;;
37151;SDS011;23046;50.112;8.952;2023-01-08T00:26:20;6.63;;;3.83;;
37151;SDS011;23046;50.112;8.952;2023-01-08T00:26:36;7.07;;;3.95;;
37151;SDS011;23046;50.112;8.952;2023-01-08T00:26:46;6.18;;;3.78;;
37151;SDS011;23046;50.112;8.952;2023-01-08T00:26:57;5.63;;;3.63;;
37151;SDS011;23046;50.112;8.952;2023-01-08T00:27:07;5.28;;;3.42;;
37151;SDS011;23046;50.112;8.952;2023-01-08T00:27:17;4.03;;;3.60;;
37151;SDS011;23046;50.112;8.952;2023-01-08T00:27:28;4.27;;;3.60;;
37151;SDS011;23046;50.112;8.952;2023-01-08T00:27:38;5.10;;;3.50;;
37151;SDS011;23046;50.112;8.952;2023-01-08T00:27:48;5.45;;;3.30;;
37151;SDS011;23046;50.112;8.952;2023-01-08T00:27:58;5.40;;;3.30;;
37151;SDS011;23046;50.112;8.952;2023-01-08T00:28:09;5.10;;;3.37;;
37151;SDS011;23046;50.112;8.952;2023-01-08T00:28:19;5.65;;;3.50;;
37151;SDS011;23046;50.112;8.952;2023-01-08T00:28:30;6.43;;;3.60;;
37151;SDS011;23046;50.112;8.952;2023-01-08T00:28:40;5.35;;;3.42;;
37151;SDS011;23046;50.112;8.952;2023-01-08T00:28:50;5.60;;;3.43;;
37151;SDS011;23046;50.112;8.952;2023-01-08T00:29:01;4.80;;;3.40;;
37151;SDS011;23046;50.112;8.952;2023-01-08T00:29:11;5.80;;;3.70;;
37151;SDS011;23046;50.112;8.952;2023-01-08T00:29:21;5.75;;;3.67;;
37151;SDS011;23046;50.112;8.952;2023-01-08T00:29:31;6.03;;;3.70;;
37151;SDS011;23046;50.112;8.952;2023-01-08T00:29:42;5.23;;;3.67;;
37151;SDS011;23046;50.112;8.952;2023-01-08T00:29:52;6.33;;;3.70;;
37151;SDS011;23046;50.112;8.952;2023-01-08T00:30:02;5.60;;;3.70;;
37151;SDS011;23046;50.112;8.952;2023-01-08T00:30:12;6.40;;;3.90;;
37151;SDS011;23046;50.112;8.952;2023-01-08T00:30:22;4.73;;;3.70;;
37151;SDS011;23046;50.112;8.952;2023-01-08T00:30:33;4.83;;;3.67;;
37151;SDS011;23046;50.112;8.952;2023-01-08T00:30:43;4.63;;;3.40;;
37151;SDS011;23046;50.112;8.952;2023-01-08T00:30:53;3.95;;;3.15;;
37151;SDS011;23046;50.112;8.952;2023-01-08T00:31:04;4.70;;;3.10;;
37151;SDS011;23046;50.112;8.952;2023-01-08T00:31:14;4.43;;;3.30;;
37151;SDS011;23046;50.112;8.952;2023-01-08T00:31:25;5.83;;;3.67;;
37151;SDS011;23046;50.112;8.952;2023-01-08T00:31:35;5.70;;;4.00;;
37151;SDS011;23046;50.112;8.952;2023-01-08T00:31:45;5.93;;;3.90;;
37151;SDS011;23046;50.112;8.952;2023-01-08T00:31:55;5.40;;;3.92;;
37151;SDS011;23046;50.112;8.952;2023-01-08T00:32:05;4.93;;;3.77;;
37151;SDS011;23046;50.112;8.952;2023-01-08T00:32:15;4.77;;;3.67;;
37151;SDS011;23046;50.112;8.952;2023-01-08T00:32:26;5.17;;;3.60;;
37151;SDS011;23046;50.112;8.952;2023-01-08T00:32:36;5.23;;;3.53;;
37151;SDS011;23046;50.112;8.952;2023-01-08T00:32:46;5.32;;;3.47;;
37151;SDS011;23046;50.112;8.952;2023-01-08T00:32:56;4.60;;;3.37;;
37151;SDS011;23046;50.112;8.952;2023-01-08T00:33:07;6.17;;;3.40;;
37151;SDS011;23046;50.112;8.952;2023-01-08T00:33:17;6.50;;;3.60;;
37151;SDS011;23046;50.112;8.952;2023-01-08T00:33:27;5.95;;;3.35;;
37151;SDS011;23046;50.112;8.952;2023-01-08T00:33:38;5.20;;;3.53;;
37151;SDS011;23046;50.112;8.952;2023-01-08T00:33:48;4.78;;;3.42;;
37151;SDS011;23046;50.112;8.952;2023-01-08T00:33:59;5.50;;;3.70;;
37151;SDS011;23046;50.112;8.952;2023-01-08T00:34:09;4.63;;;3.60;;
37151;SDS011;23046;50.112;8.952;2023-01-08T00:34:21;4.85;;;3.60;;
37151;SDS011;23046;50.112;8.952;2023-01-08T00:34:31;5.30;;;3.30;;
37151;SDS011;23046;50.112;8.952;2023-01-08T00:34:42;5.50;;;3.40;;
37151;SDS011;23046;50.112;8.952;2023-01-08T00:34:52;6.63;;;3.60;;
37151;SDS011;23046;50.112;8.952;2023-01-08T00:35:03;6.40;;;3.88;;
37151;SDS011;23046;50.112;8.952;2023-01-08T00:35:14;5.80;;;3.90;;
37151;SDS011;23046;50.112;8.952;2023-01-08T00:35:24;5.57;;;3.97;;
37151;SDS011;23046;50.112;8.952;2023-01-08T00:35:36;5.88;;;3.85;;
37151;SDS011;23046;50.112;8.952;2023-01-08T00:35:46;5.95;;;3.88;;
37151;SDS011;23046;50.112;8.952;2023-01-08T00:35:56;5.07;;;3.70;;
37151;SDS011;23046;50.112;8.952;2023-01-08T00:36:07;4.63;;;3.70;;
37151;SDS011;23046;50.112;8.952;2023-01-08T00:36:17;4.68;;;3.50;;
37151;SDS011;23046;50.112;8.952;2023-01-08T00:36:28;7.60;;;3.43;;
37151;SDS011;23046;50.112;8.952;2023-01-08T00:36:38;7.73;;;3.43;;
37151;SDS011;23046;50.112;8.952;2023-01-08T00:36:48;7.75;;;3.53;;
37151;SDS011;23046;50.112;8.952;2023-01-08T00:36:58;4.83;;;3.50;;
37151;SDS011;23046;50.112;8.952;2023-01-08T00:37:09;4.93;;;3.30;;
37151;SDS011;23046;50.112;8.952;2023-01-08T00:37:19;4.53;;;3.37;;
37151;SDS011;23046;50.112;8.952;2023-01-08T00:37:29;5.90;;;3.40;;
37151;SDS011;23046;50.112;8.952;2023-01-08T00:37:39;5.72;;;3.72;;
37151;SDS011;23046;50.112;8.952;2023-01-08T00:37:50;5.83;;;3.70;;
37151;SDS011;23046;50.112;8.952;2023-01-08T00:38:00;4.10;;;3.60;;
37151;SDS011;23046;50.112;8.952;2023-01-08T00:38:10;4.10;;;3.40;;
37151;SDS011;23046;50.112;8.952;2023-01-08T00:38:23;4.07;;;3.40;;
37151;SDS011;23046;50.112;8.952;2023-01-08T00:38:34;4.38;;;3.50;;
37151;SDS011;23046;50.112;8.952;2023-01-08T00:38:44;5.47;;;3.60;;
37151;SDS011;23046;50.112;8.952;2023-01-08T00:38:55;5.85;;;3.65;;
37151;SDS011;23046;50.112;8.952;2023-01-08T00:39:05;6.10;;;3.43;;
37151;SDS011;23046;50.112;8.952;2023-01-08T00:39:15;5.20;;;3.50;;
37151;SDS011;23046;50.112;8.952;2023-01-08T00:39:25;4.88;;;3.67;;
37151;SDS011;23046;50.112;8.952;2023-01-08T00:39:36;4.63;;;3.70;;
37151;SDS011;23046;50.112;8.952;2023-01-08T00:39:46;4.70;;;3.80;;
37151;SDS011;23046;50.112;8.952;2023-01-08T00:39:56;4.63;;;3.60;;
37151;SDS011;23046;50.112;8.952;2023-01-08T00:40:06;3.90;;;3.50;;
37151;SDS011;23046;50.112;8.952;2023-01-08T00:40:17;4.00;;;3.30;;
37151;SDS011;23046;50.112;8.952;2023-01-08T00:40:27;4.77;;;3.37;;
37151;SDS011;23046;50.112;8.952;2023-01-08T00:40:37;5.37;;;3.50;;
37151;SDS011;23046;50.112;8.952;2023-01-08T00:40:49;5.50;;;3.42;;
37151;SDS011;23046;50.112;8.952;2023-01-08T00:40:59;4.97;;;3.40;;
37151;SDS011;23046;50.112;8.952;2023-01-08T00:41:10;5.28;;;3.47;;
37151;SDS011;23046;50.112;8.952;2023-01-08T00:41:20;5.30;;;3.60;;
37151;SDS011;23046;50.112;8.952;2023-01-08T00:41:31;5.33;;;3.57;;
37151;SDS011;23046;50.112;8.952;2023-01-08T00:41:41;4.60;;;3.40;;
37151;SDS011;23046;50.112;8.952;2023-01-08T00:41:54;4.93;;;3.35;;
37151;SDS011;23046;50.112;8.952;2023-01-08T00:42:04;5.20;;;3.50;;
37151;SDS011;23046;50.112;8.952;2023-01-08T00:42:14;5.17;;;3.60;;
37151;SDS011;23046;50.112;8.952;2023-01-08T00:42:24;5.50;;;3.60;;
37151;SDS011;23046;50.112;8.952;2023-01-08T00:42:35;4.87;;;3.23;;
37151;SDS011;23046;50.112;8.952;2023-01-08T00:42:45;5.27;;;3.27;;
37151;SDS011;23046;50.112;8.952;2023-01-08T00:42:55;3.97;;;3.10;;
37151;SDS011;23046;50.112;8.952;2023-01-08T00:43:05;4.67;;;3.40;;
37151;SDS011;23046;50.112;8.952;2023-01-08T00:43:16;4.32;;;3.40;;
37151;SDS011;23046;50.112;8.952;2023-01-08T00:43:26;4.73;;;3.47;;
37151;SDS011;23046;50.112;8.952;2023-01-08T00:43:36;4.63;;;3.47;;
37151;SDS011;23046;50.112;8.952;2023-01-08T00:43:46;4.43;;;3.40;;
37151;SDS011;23046;50.112;8.952;2023-01-08T00:43:57;4.27;;;3.37;;
37151;SDS011;23046;50.112;8.952;2023-01-08T00:44:07;4.70;;;3.47;;
37151;SDS011;23046;50.112;8.952;2023-01-08T00:44:17;6.03;;;3.80;;
37151;SDS011;23046;50.112;8.952;2023-01-08T00:44:27;6.63;;;3.80;;
37151;SDS011;23046;50.112;8.952;2023-01-08T00:44:37;7.47;;;3.70;;
37151;SDS011;23046;50.112;8.952;2023-01-08T00:44:48;6.93;;;3.63;;
37151;SDS011;23046;50.112;8.952;2023-01-08T00:44:58;6.83;;;3.70;;
37151;SDS011;23046;50.112;8.952;2023-01-08T00:45:08;5.73;;;3.43;;
37151;SDS011;23046;50.112;8.952;2023-01-08T00:45:19;5.07;;;3.30;;
37151;SDS011;23046;50.112;8.952;2023-01-08T00:45:29;5.73;;;3.37;;
37151;SDS011;23046;50.112;8.952;2023-01-08T00:45:39;6.07;;;3.63;;
37151;SDS011;23046;50.112;8.952;2023-01-08T00:45:49;7.77;;;4.10;;
37151;SDS011;23046;50.112;8.952;2023-01-08T00:46:02;6.55;;;4.07;;
37151;SDS011;23046;50.112;8.952;2023-01-08T00:46:13;5.35;;;3.88;;
37151;SDS011;23046;50.112;8.952;2023-01-08T00:46:23;4.57;;;3.63;;
37151;SDS011;23046;50.112;8.952;2023-01-08T00:46:33;4.90;;;3.60;;
37151;SDS011;23046;50.112;8.952;2023-01-08T00:46:43;5.60;;;3.60;;
37151;SDS011;23046;50.112;8.952;2023-01-08T00:46:53;5.60;;;3.83;;
37151;SDS011;23046;50.112;8.952;2023-01-08T00:47:04;5.90;;;4.10;;
37151;SDS011;23046;50.112;8.952;2023-01-08T00:47:14;5.10;;;4.03;;
37151;SDS011;23046;50.112;8.952;2023-01-08T00:47:24;4.50;;;3.87;;
37151;SDS011;23046;50.112;8.952;2023-01-08T00:47:34;6.27;;;3.80;;
37151;SDS011;23046;50.112;8.952;2023-01-08T00:47:45;7.35;;;3.85;;
37151;SDS011;23046;50.112;8.952;2023-01-08T00:47:55;8.63;;;4.10;;
37151;SDS011;23046;50.112;8.952;2023-01-08T00:48:05;7.37;;;4.10;;
37151;SDS011;23046;50.112;8.952;2023-01-08T00:48:15;6.13;;;4.00;;
37151;SDS011;23046;50.112;8.952;2023-01-08T00:48:26;5.22;;;3.83;;
37151;SDS011;23046;50.112;8.952;2023-01-08T00:48:36;4.30;;;3.60;;
37151;SDS011;23046;50.112;8.952;2023-01-08T00:48:47;4.60;;;3.58;;
37151;SDS011;23046;50.112;8.952;2023-01-08T00:48:57;4.90;;;3.60;;
37151;SDS011;23046;50.112;8.952;2023-01-08T00:49:07;4.85;;;3.60;;
37151;SDS011;23046;50.112;8.952;2023-01-08T00:49:18;5.03;;;3.60;;
37151;SDS011;23046;50.112;8.952;2023-01-08T00:49:28;4.95;;;3.65;;
37151;SDS011;23046;50.112;8.952;2023-01-08T00:49:38;5.10;;;3.73;;
37151;SDS011;23046;50.112;8.952;2023-01-08T00:49:48;4.87;;;3.73;;
37151;SDS011;23046;50.112;8.952;2023-01-08T00:49:59;4.90;;;3.53;;
37151;SDS011;23046;50.112;8.952;2023-01-08T00:50:09;5.13;;;3.50;;
37151;SDS011;23046;50.112;8.952;2023-01-08T00:50:20;5.80;;;3.53;;
37151;SDS011;23046;50.112;8.952;2023-01-08T00:50:30;6.03;;;3.50;;
37151;SDS011;23046;50.112;8.952;2023-01-08T00:50:40;6.20;;;3.63;;
37151;SDS011;23046;50.112;8.952;2023-01-08T00:50:50;5.90;;;3.43;;
37151;SDS011;23046;50.112;8.952;2023-01-08T00:51:01;5.10;;;3.40;;
37151;SDS011;23046;50.112;8.952;2023-01-08T00:51:12;4.65;;;3.30;;
37151;SDS011;23046;50.112;8.952;2023-01-08T00:51:22;5.27;;;3.43;;
37151;SDS011;23046;50.112;8.952;2023-01-08T00:51:32;5.33;;;3.40;;
37151;SDS011;23046;50.112;8.952;2023-01-08T00:51:42;5.18;;;3.47;;
37151;SDS011;23046;50.112;8.952;2023-01-08T00:51:53;4.27;;;3.37;;
37151;SDS011;23046;50.112;8.952;2023-01-08T00:52:03;4.90;;;3.67;;
37151;SDS011;23046;50.112;8.952;2023-01-08T00:52:13;4.80;;;3.43;;
37151;SDS011;23046;50.112;8.952;2023-01-08T00:52:23;5.47;;;3.50;;
37151;SDS011;23046;50.112;8.952;2023-01-08T00:52:33;4.18;;;3.00;;
37151;SDS011;23046;50.112;8.952;2023-01-08T00:52:44;4.27;;;3.03;;
37151;SDS011;23046;50.112;8.952;2023-01-08T00:52:54;4.03;;;3.03;;
37151;SDS011;23046;50.112;8.952;2023-01-08T00:53:04;5.23;;;3.40;;
37151;SDS011;23046;50.112;8.952;2023-01-08T00:53:14;4.73;;;3.30;;
37151;SDS011;23046;50.112;8.952;2023-01-08T00:53:24;4.47;;;3.27;;
37151;SDS011;23046;50.112;8.952;2023-01-08T00:53:35;3.95;;;3.17;;
37151;SDS011;23046;50.112;8.952;2023-01-08T00:53:46;4.50;;;3.47;;
37151;SDS011;23046;50.112;8.952;2023-01-08T00:53:57;5.68;;;3.78;;
37151;SDS011;23046;50.112;8.952;2023-01-08T00:54:08;5.63;;;3.83;;
37151;SDS011;23046;50.112;8.952;2023-01-08T00:54:18;5.07;;;3.60;;
37151;SDS011;23046;50.112;8.952;2023-01-08T00:54:28;4.50;;;3.57;;
37151;SDS011;23046;50.112;8.952;2023-01-08T00:54:38;5.07;;;3.67;;
37151;SDS011;23046;50.112;8.952;2023-01-08T00:54:48;6.17;;;3.63;;
37151;SDS011;23046;50.112;8.952;2023-01-08T00:54:59;6.18;;;3.67;;
37151;SDS011;23046;50.112;8.952;2023-01-08T00:55:09;5.70;;;3.60;;
37151;SDS011;23046;50.112;8.952;2023-01-08T00:55:19;5.93;;;3.70;;
37151;SDS011;23046;50.112;8.952;2023-01-08T00:55:29;5.63;;;3.70;;
37151;SDS011;23046;50.112;8.952;2023-01-08T00:55:40;5.68;;;3.80;;
37151;SDS011;23046;50.112;8.952;2023-01-08T00:55:57;4.23;;;3.80;;
37151;SDS011;23046;50.112;8.952;2023-01-08T00:56:09;4.75;;;3.25;;
37151;SDS011;23046;50.112;8.952;2023-01-08T00:56:19;5.28;;;3.35;;
37151;SDS011;23046;50.112;8.952;2023-01-08T00:56:29;5.93;;;3.50;;
37151;SDS011;23046;50.112;8.952;2023-01-08T00:56:39;5.60;;;3.70;;
37151;SDS011;23046;50.112;8.952;2023-01-08T00:56:50;6.50;;;3.60;;
37151;SDS011;23046;50.112;8.952;2023-01-08T00:57:00;6.27;;;3.60;;
37151;SDS011;23046;50.112;8.952;2023-01-08T00:57:10;6.17;;;3.70;;
37151;SDS011;23046;50.112;8.952;2023-01-08T00:57:23;5.43;;;3.78;;
37151;SDS011;23046;50.112;8.952;2023-01-08T00:57:33;6.00;;;3.90;;
37151;SDS011;23046;50.112;8.952;2023-01-08T00:57:43;5.67;;;3.87;;
37151;SDS011;23046;50.112;8.952;2023-01-08T00:57:53;5.07;;;3.73;;
37151;SDS011;23046;50.112;8.952;2023-01-08T00:58:04;4.93;;;3.55;;
37151;SDS011;23046;50.112;8.952;2023-01-08T00:58:14;4.57;;;3.50;;
37151;SDS011;23046;50.112;8.952;2023-01-08T00:58:25;4.30;;;3.42;;
37151;SDS011;23046;50.112;8.952;2023-01-08T00:58:35;4.23;;;3.60;;
37151;SDS011;23046;50.112;8.952;2023-01-08T00:58:45;4.43;;;3.60;;
37151;SDS011;23046;50.112;8.952;2023-01-08T00:58:55;4.53;;;3.57;;
37151;SDS011;23046;50.112;8.952;2023-01-08T00:59:05;5.03;;;3.73;;
37151;SDS011;23046;50.112;8.952;2023-01-08T00:59:16;6.38;;;3.60;;
37151;SDS011;23046;50.112;8.952;2023-01-08T00:59:26;6.90;;;3.70;;
37151;SDS011;23046;50.112;8.952;2023-01-08T00:59:36;6.63;;;3.67;;
37151;SDS011;23046;50.112;8.952;2023-01-08T00:59:46;5.60;;;3.70;;
37151;SDS011;23046;50.112;8.952;2023-01-08T00:59:56;5.03;;;3.77;;
37151;SDS011;23046;50.112;8.952;2023-01-08T01:00:07;4.53;;;3.67;;
37151;SDS011;23046;50.112;8.952;2023-01-08T01:00:18;4.97;;;3.58;;
37151;SDS011;23046;50.112;8.952;2023-01-08T01:00:28;5.30;;;3.60;;
37151;SDS011;23046;50.112;8.952;2023-01-08T01:00:38;6.53;;;3.60;;
37151;SDS011;23046;50.112;8.952;2023-01-08T01:00:49;6.55;;;3.67;;
37151;SDS011;23046;50.112;8.952;2023-01-08T01:00:59;5.93;;;3.50;;
37151;SDS011;23046;50.112;8.952;2023-01-08T01:01:10;4.77;;;3.60;;
37151;SDS011;23046;50.112;8.952;2023-01-08T01:01:20;4.20;;;3.53;;
37151;SDS011;23046;50.112;8.952;2023-01-08T01:01:31;4.50;;;3.63;;
37151;SDS011;23046;50.112;8.952;2023-01-08T01:01:41;5.85;;;3.80;;
37151;SDS011;23046;50.112;8.952;2023-01-08T01:01:51;6.20;;;3.83;;
37151;SDS011;23046;50.112;8.952;2023-01-08T01:02:03;7.00;;;4.13;;
37151;SDS011;23046;50.112;8.952;2023-01-08T01:02:13;5.60;;;4.00;;
37151;SDS011;23046;50.112;8.952;2023-01-08T01:02:23;5.23;;;3.90;;
37151;SDS011;23046;50.112;8.952;2023-01-08T01:02:36;4.90;;;3.65;;
37151;SDS011;23046;50.112;8.952;2023-01-08T01:02:47;5.35;;;3.60;;
37151;SDS011;23046;50.112;8.952;2023-01-08T01:02:57;4.83;;;3.53;;
37151;SDS011;23046;50.112;8.952;2023-01-08T01:03:07;5.23;;;3.93;;
37151;SDS011;23046;50.112;8.952;2023-01-08T01:03:17;5.03;;;3.90;;